Terminal Aerodrome Forecast
Issued by NWS

Home | Current Version | Previous Version | Graphics & Text | Print | Product List | Glossary Off
Versions: 1 2 3 4 5 6 7 8 9 10 11 12 13 14 15 16 17 18 19 20 21 22 23 24 25 26 27 28 29 30 31 32 33 34 35 36

653
FTUS43 KDDC 211120
TAFGCK
TAF
KGCK 211120Z 2112/2212 29004KT P6SM OVC100
     FM211500 21010KT P6SM BKN100
     FM212100 13009KT P6SM VCTS BKN080CB
     FM220300 18008KT P6SM -SHRA OVC080
     FM220900 21008KT P6SM VCSH OVC060=

USA.gov is the U.S. government's official web portal to all federal, state and local government web resources and services.